Time;durP1;ratioP1;P1;durP2;ratioP2;P2;SDS_P1;SDS_P2;PMS_P1;PMS_P2;Temp;Humidity;BMP_temperature;BMP_pressure;BME280_temperature;BME280_humidity;BME280_pressure;Samples;Min_cycle;Max_cycle;Signal;HPM_P1;HPM_P2
2023/05/27 00:00:23;;;;;;;3.77;3.30;;;;;;;18.29;73.46;96924.88;5010391;28;20218;-70
2023/05/27 00:02:50;;;;;;;4.83;3.43;;;;;;;18.28;73.60;96917.94;5011369;28;20232;-73
2023/05/27 00:05:18;;;;;;;4.57;3.80;;;;;;;18.26;73.95;96924.28;5010398;28;20239;-73
2023/05/27 00:07:45;;;;;;;6.33;3.83;;;;;;;18.27;73.21;96915.44;5010889;28;20193;-70
2023/05/27 00:10:12;;;;;;;3.97;3.40;;;;;;;18.24;73.94;96921.75;5010749;28;20225;-72
2023/05/27 00:12:39;;;;;;;5.00;3.77;;;;;;;18.28;74.07;96914.50;5010174;28;20251;-71
2023/05/27 00:15:07;;;;;;;4.90;4.13;;;;;;;18.26;74.14;96906.75;5011190;28;20571;-72
2023/05/27 00:17:35;;;;;;;4.93;3.77;;;;;;;18.21;73.46;96914.16;5008482;28;20283;-73
2023/05/27 00:20:07;;;;;;;4.23;3.83;;;;;;;18.18;74.62;96903.03;5011115;28;20185;-71
2023/05/27 00:22:37;;;;;;;4.40;4.00;;;;;;;18.20;74.84;96906.38;5008740;28;20312;-71
2023/05/27 00:25:05;;;;;;;5.40;4.13;;;;;;;18.02;75.39;96905.19;5010500;28;20188;-75
2023/05/27 00:27:32;;;;;;;4.13;3.57;;;;;;;17.98;75.44;96907.22;5010786;28;20192;-70
2023/05/27 00:30:00;;;;;;;4.20;3.73;;;;;;;18.01;75.94;96911.41;5009798;28;20188;-71
2023/05/27 00:32:27;;;;;;;5.60;3.87;;;;;;;18.06;75.92;96902.22;4993285;28;20245;-70
2023/05/27 00:34:54;;;;;;;4.83;3.70;;;;;;;18.05;75.43;96897.09;5008361;28;20196;-73
2023/05/27 00:37:21;;;;;;;5.13;3.93;;;;;;;18.08;75.77;96889.84;5025585;28;20626;-71
2023/05/27 00:39:49;;;;;;;5.57;4.40;;;;;;;18.18;75.74;96882.91;5009580;28;20200;-69
2023/05/27 00:42:16;;;;;;;5.03;4.53;;;;;;;18.15;75.33;96875.31;5010231;28;20821;-71
2023/05/27 00:44:43;;;;;;;5.20;4.10;;;;;;;18.26;75.38;96888.38;5008942;28;20218;-72
2023/05/27 00:47:10;;;;;;;4.57;4.10;;;;;;;18.38;74.80;96883.97;5008300;28;20201;-73
2023/05/27 00:49:38;;;;;;;4.13;3.73;;;;;;;18.34;74.95;96877.31;5009381;28;20225;-70
2023/05/27 00:52:05;;;;;;;6.33;3.70;;;;;;;18.43;74.88;96884.44;5007978;28;20229;-73
2023/05/27 00:54:32;;;;;;;5.27;3.77;;;;;;;18.36;74.78;96880.66;5010571;28;20225;-71
2023/05/27 00:57:02;;;;;;;4.83;3.83;;;;;;;18.38;74.25;96876.13;5009297;28;20285;-71
2023/05/27 00:59:29;;;;;;;5.17;3.57;;;;;;;18.46;73.47;96873.75;5010181;28;20748;-70
2023/05/27 01:01:56;;;;;;;3.83;3.30;;;;;;;18.52;73.26;96875.88;5013133;28;20193;-74
2023/05/27 01:04:25;;;;;;;3.20;2.90;;;;;;;18.57;72.27;96871.09;5012229;28;20260;-75
2023/05/27 01:07:08;;;;;;;5.93;3.40;;;;;;;18.67;72.42;96869.38;5009759;28;20245;-70
2023/05/27 01:09:50;;;;;;;4.37;3.47;;;;;;;18.62;72.37;96871.56;5009634;28;20680;-71
2023/05/27 01:12:35;;;;;;;3.93;3.37;;;;;;;18.54;72.30;96853.81;5008504;28;20234;-71
2023/05/27 01:15:05;;;;;;;3.13;2.70;;;;;;;18.51;72.10;96858.47;5009638;28;20660;-70
2023/05/27 01:17:37;;;;;;;3.67;3.10;;;;;;;18.47;71.52;96862.28;5007719;28;20198;-71
2023/05/27 01:20:06;;;;;;;3.50;3.20;;;;;;;18.43;71.55;96855.59;5009860;28;20584;-70
2023/05/27 01:22:33;;;;;;;3.70;3.07;;;;;;;18.42;71.93;96859.19;5008515;28;20205;-70
2023/05/27 01:25:01;;;;;;;3.87;2.93;;;;;;;18.30;71.83;96858.34;5009735;28;20194;-70
2023/05/27 01:27:30;;;;;;;3.20;2.90;;;;;;;18.29;71.66;96848.00;5008796;28;20209;-71
2023/05/27 01:29:57;;;;;;;3.33;3.03;;;;;;;18.40;71.20;96853.22;5009179;28;20221;-70
2023/05/27 01:32:48;;;;;;;3.43;3.10;;;;;;;18.31;71.45;96846.91;5008176;28;20235;-69
2023/05/27 01:35:30;;;;;;;4.60;2.80;;;;;;;18.38;70.98;96853.31;5008294;28;20193;-70
2023/05/27 01:38:01;;;;;;;3.00;2.70;;;;;;;18.38;70.82;96848.09;5009370;28;20367;-69
2023/05/27 01:40:29;;;;;;;3.70;2.93;;;;;;;18.37;70.73;96845.59;5008432;28;20201;-69
2023/05/27 01:42:57;;;;;;;6.47;2.80;;;;;;;18.34;70.98;96846.66;5007962;28;20199;-70
2023/05/27 01:45:25;;;;;;;3.17;2.87;;;;;;;18.39;71.04;96843.69;5007933;28;20694;-68
2023/05/27 01:47:53;;;;;;;3.07;2.73;;;;;;;18.29;71.04;96832.25;5007160;28;20260;-69
2023/05/27 01:50:21;;;;;;;4.23;2.63;;;;;;;18.35;71.11;96839.63;5024408;28;20214;-69
2023/05/27 01:52:48;;;;;;;3.90;2.73;;;;;;;18.38;70.66;96842.03;5006607;28;20696;-70
2023/05/27 01:55:17;;;;;;;3.13;2.80;;;;;;;18.39;70.45;96838.44;5008919;28;20254;-69
2023/05/27 01:57:45;;;;;;;3.07;2.60;;;;;;;18.38;70.64;96842.84;5006999;28;20287;-70
2023/05/27 02:00:15;;;;;;;5.03;3.23;;;;;;;18.37;70.47;96845.59;5007494;28;20742;-70
2023/05/27 02:02:44;;;;;;;3.53;2.80;;;;;;;18.39;70.96;96846.31;5008876;28;20193;-72
2023/05/27 02:05:14;;;;;;;3.23;2.93;;;;;;;18.37;70.00;96841.19;4990212;28;20213;-68
2023/05/27 02:07:41;;;;;;;3.27;2.70;;;;;;;18.45;69.91;96848.47;5008717;28;20701;-70
2023/05/27 02:10:09;;;;;;;4.03;2.87;;;;;;;18.38;70.50;96848.09;5006288;28;20197;-70
2023/05/27 02:12:37;;;;;;;5.63;2.87;;;;;;;18.44;69.91;96842.38;5007360;28;20260;-69
2023/05/27 02:15:05;;;;;;;3.03;2.67;;;;;;;18.42;69.30;96840.81;5006622;28;20201;-69
2023/05/27 02:17:34;;;;;;;3.20;2.83;;;;;;;18.46;69.19;96844.91;5006343;28;20698;-69
2023/05/27 02:20:01;;;;;;;3.50;2.43;;;;;;;18.39;69.03;96849.75;5007118;28;20200;-69
2023/05/27 02:22:30;;;;;;;4.07;2.77;;;;;;;18.42;69.10;96848.69;5007817;28;20209;-68
2023/05/27 02:24:57;;;;;;;2.60;2.40;;;;;;;18.48;68.57;96849.06;5008608;28;20201;-71
2023/05/27 02:27:24;;;;;;;2.67;2.47;;;;;;;18.45;68.69;96845.84;5007116;28;20202;-69
2023/05/27 02:29:51;;;;;;;4.13;2.53;;;;;;;18.42;68.00;96846.06;5008578;28;21040;-75
2023/05/27 02:32:19;;;;;;;2.43;2.23;;;;;;;18.51;67.64;96848.81;5006335;28;20240;-74
2023/05/27 02:34:46;;;;;;;5.87;2.93;;;;;;;18.45;67.61;96851.94;5006994;28;20204;-75
2023/05/27 02:37:13;;;;;;;2.83;2.50;;;;;;;18.47;67.01;96851.78;5006893;28;20193;-72
2023/05/27 02:39:40;;;;;;;2.70;2.50;;;;;;;18.45;67.57;96849.31;5006209;28;20197;-76
2023/05/27 02:42:08;;;;;;;3.73;2.80;;;;;;;18.49;67.58;96866.47;5007184;28;20269;-73
2023/05/27 02:44:35;;;;;;;2.97;2.40;;;;;;;18.50;66.84;96867.31;5007060;28;20249;-75
2023/05/27 02:47:02;;;;;;;2.43;1.97;;;;;;;18.57;66.73;96871.09;5007021;28;20202;-75
2023/05/27 02:49:29;;;;;;;2.50;2.30;;;;;;;18.46;66.54;96851.00;5007087;28;20287;-78
2023/05/27 02:51:56;;;;;;;3.30;2.80;;;;;;;18.60;66.88;96869.06;5006589;28;20224;-72
2023/05/27 02:54:24;;;;;;;3.30;2.07;;;;;;;18.66;66.59;96872.97;5006452;28;20515;-69
2023/05/27 02:56:51;;;;;;;3.47;2.40;;;;;;;18.42;67.26;96869.66;5005772;28;20226;-70
2023/05/27 02:59:18;;;;;;;4.93;2.97;;;;;;;18.44;67.08;96857.31;5006678;28;20198;-68
2023/05/27 03:01:45;;;;;;;3.17;2.57;;;;;;;18.47;66.88;96864.91;5006941;28;20292;-69
2023/05/27 03:04:12;;;;;;;3.10;2.50;;;;;;;18.45;67.79;96872.06;5006604;28;20237;-69
2023/05/27 03:06:40;;;;;;;2.67;2.47;;;;;;;18.49;68.19;96882.19;5005589;28;20656;-69
2023/05/27 03:09:09;;;;;;;3.30;3.00;;;;;;;18.36;70.27;96885.91;5006444;28;20795;-69
2023/05/27 03:11:36;;;;;;;5.60;3.30;;;;;;;18.39;71.32;96883.00;5022447;28;20234;-69
2023/05/27 03:14:03;;;;;;;4.90;3.00;;;;;;;18.53;70.80;96882.78;5005821;28;20197;-69
2023/05/27 03:16:31;;;;;;;4.93;3.33;;;;;;;18.46;71.22;96889.47;5006562;28;20674;-68
2023/05/27 03:18:58;;;;;;;5.80;3.97;;;;;;;18.21;71.78;96877.44;5006603;28;20238;-69
2023/05/27 03:21:26;;;;;;;4.77;3.80;;;;;;;18.16;72.65;96879.59;5006399;28;20700;-69
2023/05/27 03:23:53;;;;;;;6.00;3.80;;;;;;;18.34;71.98;96893.84;5005345;28;20184;-69
2023/05/27 03:26:21;;;;;;;4.07;3.67;;;;;;;18.39;72.31;96889.09;5006428;28;20588;-69
2023/05/27 03:28:49;;;;;;;5.10;3.57;;;;;;;18.26;72.53;96879.72;5005648;28;20613;-70
2023/05/27 03:31:17;;;;;;;4.60;3.60;;;;;;;18.41;73.02;96886.34;5006987;28;20237;-69
2023/05/27 03:33:55;;;;;;;4.13;3.73;;;;;;;18.34;73.42;96893.06;5006264;28;20299;-70
2023/05/27 03:36:22;;;;;;;5.27;3.97;;;;;;;18.08;74.78;96899.47;5006399;28;20197;-68
2023/05/27 03:38:51;;;;;;;5.47;4.07;;;;;;;18.12;74.67;96898.28;5006451;28;20197;-68
2023/05/27 03:41:18;;;;;;;6.23;4.90;;;;;;;18.23;73.82;96887.81;5005180;28;20246;-68
2023/05/27 03:43:45;;;;;;;5.00;4.30;;;;;;;17.94;75.78;96900.56;5006046;28;20250;-70
2023/05/27 03:46:14;;;;;;;5.57;4.77;;;;;;;17.77;75.49;96877.44;5005762;28;20260;-69
2023/05/27 03:48:41;;;;;;;4.73;4.07;;;;;;;18.06;74.81;96901.38;5005424;28;20239;-69
2023/05/27 03:51:09;;;;;;;4.90;4.10;;;;;;;18.12;74.28;96904.38;5006193;28;20220;-69
2023/05/27 03:53:36;;;;;;;4.20;3.60;;;;;;;18.06;72.77;96890.91;4998724;28;20292;-69
2023/05/27 03:56:03;;;;;;;8.67;3.87;;;;;;;18.29;73.50;96895.19;5008595;28;20229;-68
2023/05/27 03:58:31;;;;;;;2.60;2.37;;;;;;;18.31;69.41;96903.75;4985450;28;20235;-68
2023/05/27 04:00:58;;;;;;;2.60;2.40;;;;;;;18.25;69.93;96906.88;4987552;28;20735;-68
2023/05/27 04:03:26;;;;;;;3.10;2.80;;;;;;;18.30;69.15;96896.88;4985835;28;20636;-68
2023/05/27 04:05:54;;;;;;;3.93;2.83;;;;;;;18.30;69.13;96902.13;4987103;28;20202;-68
2023/05/27 04:08:22;;;;;;;5.37;2.30;;;;;;;18.43;68.20;96905.41;4970202;28;20213;-69
2023/05/27 04:10:49;;;;;;;2.40;2.20;;;;;;;18.24;67.97;96906.03;4986419;28;20285;-68
2023/05/27 04:13:17;;;;;;;2.27;2.07;;;;;;;18.20;68.24;96909.84;5002326;28;20295;-69
2023/05/27 04:15:44;;;;;;;2.47;2.10;;;;;;;18.10;68.76;96910.69;4985050;28;20209;-69
2023/05/27 04:18:12;;;;;;;2.30;2.10;;;;;;;17.94;68.44;96910.19;4986112;28;20223;-69
2023/05/27 04:20:44;;;;;;;2.17;1.97;;;;;;;17.95;67.63;96912.69;4986861;28;20625;-68
2023/05/27 04:23:12;;;;;;;2.53;2.03;;;;;;;18.03;67.43;96897.25;4988611;28;20306;-68
2023/05/27 04:25:40;;;;;;;3.00;2.23;;;;;;;18.08;67.35;96917.81;4966902;28;20212;-76
2023/05/27 04:28:10;;;;;;;2.17;1.97;;;;;;;18.01;67.96;96921.88;4989158;28;20205;-71
2023/05/27 04:30:41;;;;;;;4.80;2.37;;;;;;;18.13;68.05;96924.41;4999813;28;20570;-71
2023/05/27 04:33:16;;;;;;;3.17;1.90;;;;;;;18.21;67.93;96918.56;5004546;28;20235;-69
2023/05/27 04:35:44;;;;;;;2.30;2.10;;;;;;;18.28;67.35;96923.19;5005530;28;20264;-69
2023/05/27 04:38:16;;;;;;;3.50;2.17;;;;;;;18.41;66.46;96926.53;5005334;28;20693;-69
2023/05/27 04:40:59;;;;;;;3.90;2.17;;;;;;;18.56;65.33;96914.03;5021258;28;20204;-69
2023/05/27 04:43:43;;;;;;;3.03;2.30;;;;;;;18.68;65.41;96927.00;5008890;28;20713;-68
2023/05/27 04:46:14;;;;;;;8.13;2.50;;;;;;;18.68;65.58;96919.13;5024446;28;20701;-70
2023/05/27 04:48:44;;;;;;;5.10;2.33;;;;;;;18.76;65.38;96939.50;5008920;28;20234;-68
2023/05/27 04:51:15;;;;;;;3.97;3.23;;;;;;;18.78;64.64;96913.13;5008621;28;20206;-69
2023/05/27 04:53:42;;;;;;;6.67;2.60;;;;;;;18.86;64.75;96924.66;5009342;28;20201;-69
2023/05/27 04:56:14;;;;;;;3.87;2.23;;;;;;;18.93;63.81;96928.47;5008657;28;20606;-70
2023/05/27 04:58:43;;;;;;;3.60;2.80;;;;;;;18.96;63.71;96938.72;4999371;28;20197;-74
2023/05/27 05:01:16;;;;;;;6.70;2.90;;;;;;;19.08;63.65;96939.53;5003202;28;20196;-74
2023/05/27 05:06:40;;;;;;;3.43;2.40;;;;;;;19.11;63.41;96944.53;5007575;28;20233;-70
2023/05/27 05:09:09;;;;;;;4.07;2.60;;;;;;;19.23;65.26;96948.78;5008577;28;20198;-69
2023/05/27 05:11:37;;;;;;;3.07;2.40;;;;;;;19.19;63.37;96956.06;5007472;28;20284;-78
2023/05/27 05:14:04;;;;;;;3.10;2.27;;;;;;;19.21;64.11;96954.16;4991794;28;20198;-69
2023/05/27 05:16:31;;;;;;;3.87;2.63;;;;;;;19.17;64.64;96952.75;5006885;28;20210;-69
2023/05/27 05:18:58;;;;;;;7.70;3.20;;;;;;;19.21;64.56;96954.16;5008245;28;20204;-69
2023/05/27 05:21:30;;;;;;;5.43;3.70;;;;;;;19.28;64.07;96955.34;5007949;28;20560;-72
2023/05/27 05:23:57;;;;;;;3.17;2.87;;;;;;;19.17;64.52;96951.91;4993626;28;20271;-70
2023/05/27 05:26:25;;;;;;;4.03;2.73;;;;;;;19.34;64.15;96957.50;5005048;28;20639;-70
2023/05/27 05:28:52;;;;;;;4.43;2.80;;;;;;;19.15;64.20;96949.41;5003849;28;20245;-69
2023/05/27 05:31:19;;;;;;;3.90;2.77;;;;;;;19.14;63.57;96950.38;5004967;28;20733;-70
2023/05/27 05:33:47;;;;;;;6.33;3.93;;;;;;;19.24;63.56;96953.91;5003487;28;20241;-70
2023/05/27 05:36:14;;;;;;;6.17;3.40;;;;;;;19.22;62.93;96947.13;5004519;28;20242;-73
2023/05/27 05:38:52;;;;;;;3.13;2.73;;;;;;;19.18;63.30;96951.78;4996904;28;20209;-70
2023/05/27 05:41:19;;;;;;;6.40;4.93;;;;;;;19.13;63.02;96946.06;4993860;28;20337;-68
2023/05/27 05:43:47;;;;;;;9.57;4.33;;;;;;;19.30;63.03;96948.16;4988190;28;20207;-70
2023/05/27 05:46:15;;;;;;;6.30;3.23;;;;;;;19.43;62.59;96946.22;5006152;28;20264;-71
2023/05/27 05:48:43;;;;;;;5.27;4.23;;;;;;;19.41;62.49;96936.81;5007816;28;20206;-69
2023/05/27 05:51:14;;;;;;;6.27;3.33;;;;;;;19.42;62.40;96968.19;4991134;28;20209;-76
2023/05/27 05:53:45;;;;;;;4.47;3.37;;;;;;;19.46;62.46;96958.25;5006986;28;20238;-73
2023/05/27 05:56:13;;;;;;;3.10;2.80;;;;;;;19.52;62.68;96964.78;5007078;28;20260;-71
2023/05/27 05:58:40;;;;;;;3.60;3.07;;;;;;;19.46;62.56;96956.47;5016308;28;20198;-70
2023/05/27 06:01:07;;;;;;;4.40;3.10;;;;;;;19.40;62.82;96964.03;5002697;28;20199;-70
2023/05/27 06:03:39;;;;;;;4.23;3.20;;;;;;;19.34;62.80;96960.13;4996558;28;20221;-69
2023/05/27 06:06:09;;;;;;;3.90;3.47;;;;;;;19.38;62.52;96958.91;5014128;28;20711;-69
2023/05/27 06:08:59;;;;;;;5.33;3.03;;;;;;;19.44;62.58;96955.78;4988068;28;20206;-68
2023/05/27 06:11:26;;;;;;;3.80;2.83;;;;;;;19.44;62.68;96958.41;4986970;28;20302;-70
2023/05/27 06:13:54;;;;;;;6.20;3.67;;;;;;;19.51;62.75;96963.16;4987988;28;20230;-79
2023/05/27 06:16:21;;;;;;;6.90;3.07;;;;;;;19.44;62.52;96963.66;5006164;28;20325;-73
2023/05/27 06:19:01;;;;;;;6.00;3.53;;;;;;;19.60;62.90;96965.03;4981417;28;20198;-76
2023/05/27 06:21:33;;;;;;;8.57;3.30;;;;;;;19.65;62.69;96962.81;4987980;28;20659;-76
2023/05/27 06:24:20;;;;;;;3.97;3.13;;;;;;;19.60;63.69;96962.41;5015473;28;20612;-73
2023/05/27 06:26:54;;;;;;;3.27;2.70;;;;;;;19.58;62.79;96966.94;5006101;28;20245;-70
2023/05/27 06:29:21;;;;;;;4.40;2.57;;;;;;;19.57;63.34;96966.09;5005083;28;20583;-69
2023/05/27 06:31:48;;;;;;;3.70;3.10;;;;;;;19.62;63.16;96968.34;5006580;28;20607;-70
2023/05/27 06:34:16;;;;;;;8.27;3.23;;;;;;;19.61;63.51;96975.41;5005174;28;20259;-70
2023/05/27 06:36:44;;;;;;;7.33;3.17;;;;;;;19.64;64.03;96969.06;5006845;28;20224;-73
2023/05/27 06:39:12;;;;;;;13.43;4.00;;;;;;;19.65;64.28;96954.94;5005487;28;20205;-71
2023/05/27 06:41:40;;;;;;;4.97;2.93;;;;;;;19.76;63.72;96965.41;5006164;28;20194;-69
2023/05/27 06:44:33;;;;;;;4.17;3.10;;;;;;;19.56;63.87;96963.59;5005503;28;20997;-77
2023/05/27 06:47:08;;;;;;;6.57;3.90;;;;;;;19.64;63.54;96975.13;5021524;28;20601;-71
2023/05/27 06:49:36;;;;;;;4.57;3.77;;;;;;;19.71;63.46;96967.56;5006409;28;20214;-73
2023/05/27 06:52:06;;;;;;;5.03;3.20;;;;;;;19.50;64.43;96967.56;5005068;28;20234;-72
2023/05/27 06:54:57;;;;;;;4.53;3.87;;;;;;;19.71;63.89;96965.78;4992199;28;20242;-71
2023/05/27 06:58:06;;;;;;;3.17;2.87;;;;;;;19.61;64.13;96964.88;4958121;28;20730;-74
2023/05/27 07:00:54;;;;;;;5.03;2.53;;;;;;;19.57;64.49;96966.09;4977797;28;20203;-69
2023/05/27 07:03:30;;;;;;;8.13;3.27;;;;;;;19.34;64.90;96967.16;4977431;28;20303;-68
2023/05/27 07:05:58;;;;;;;3.40;2.73;;;;;;;19.33;65.70;96968.09;5022149;28;20591;-72
2023/05/27 07:08:35;;;;;;;4.80;2.77;;;;;;;19.45;64.92;96972.38;4989459;28;20268;-77
2023/05/27 07:11:16;;;;;;;4.00;2.63;;;;;;;19.34;64.78;96982.91;5005994;28;20193;-74
2023/05/27 07:13:43;;;;;;;2.97;2.60;;;;;;;19.25;65.39;96987.06;4988607;28;20624;-71
2023/05/27 07:16:12;;;;;;;3.40;3.10;;;;;;;19.25;65.35;96981.00;5005942;28;20195;-73
2023/05/27 07:18:39;;;;;;;5.47;4.07;;;;;;;19.17;65.70;96984.25;5022467;28;20206;-76
2023/05/27 07:21:07;;;;;;;3.57;3.00;;;;;;;19.17;65.76;96989.50;5005209;28;20658;-79
2023/05/27 07:23:34;;;;;;;5.43;3.27;;;;;;;19.26;65.38;96983.50;5006132;28;20303;-72
2023/05/27 07:26:20;;;;;;;5.33;3.63;;;;;;;19.33;65.32;96979.44;5007210;28;20201;-78
2023/05/27 07:28:48;;;;;;;8.23;5.10;;;;;;;19.44;65.05;96984.66;5005477;28;20206;-73
2023/05/27 07:31:22;;;;;;;5.17;3.20;;;;;;;19.40;65.39;96988.50;5004606;28;20202;-71
2023/05/27 07:33:55;;;;;;;4.53;2.83;;;;;;;19.36;65.28;96992.34;5005277;28;20287;-71
2023/05/27 07:36:23;;;;;;;6.00;3.83;;;;;;;19.49;65.32;96985.09;5005452;28;20197;-70
2023/05/27 07:38:57;;;;;;;4.17;2.97;;;;;;;19.37;65.09;97003.69;5004795;28;20894;-76
2023/05/27 07:41:39;;;;;;;4.47;3.43;;;;;;;19.43;65.07;96996.13;5005437;28;20704;-69
2023/05/27 07:44:06;;;;;;;6.07;3.63;;;;;;;19.54;65.06;96989.19;5004604;28;20226;-73
2023/05/27 07:46:37;;;;;;;6.83;4.23;;;;;;;19.38;64.85;96971.19;5005313;28;20680;-71
2023/05/27 07:49:06;;;;;;;4.77;2.87;;;;;;;19.61;64.54;96982.44;5004804;28;20661;-73
2023/05/27 07:51:40;;;;;;;5.70;3.10;;;;;;;19.63;64.15;96991.03;4986000;28;20207;-70
2023/05/27 07:54:09;;;;;;;4.70;2.90;;;;;;;19.64;64.44;96984.81;5009808;28;20244;-70
2023/05/27 07:56:36;;;;;;;8.00;3.60;;;;;;;19.68;64.70;96983.59;5003945;28;20230;-79
2023/05/27 07:59:04;;;;;;;8.17;4.37;;;;;;;19.61;65.41;96990.31;5005303;28;20276;-71
2023/05/27 08:01:32;;;;;;;5.67;3.37;;;;;;;19.66;64.61;96985.53;5020525;28;20208;-75
2023/05/27 08:04:40;;;;;;;5.17;3.27;;;;;;;19.91;63.43;96990.38;4988915;28;20206;-74
2023/05/27 08:07:58;;;;;;;3.30;2.93;;;;;;;19.97;63.88;96995.97;5005981;28;20202;-70
2023/05/27 08:10:46;;;;;;;6.13;4.47;;;;;;;20.00;63.44;96994.88;5007384;28;20198;-77
2023/05/27 08:13:31;;;;;;;4.63;3.80;;;;;;;20.11;63.34;97006.16;5005438;28;20275;-71
2023/05/27 08:16:22;;;;;;;7.20;4.13;;;;;;;20.21;63.48;97014.16;5012466;28;20287;-76
2023/05/27 08:19:01;;;;;;;5.83;3.47;;;;;;;20.14;63.13;96998.03;4991938;28;20202;-76
2023/05/27 08:21:41;;;;;;;5.33;3.80;;;;;;;20.17;62.86;97004.81;5008704;28;20202;-75
2023/05/27 08:24:27;;;;;;;4.37;3.80;;;;;;;20.24;62.91;97003.34;5024982;28;20205;-76
2023/05/27 08:27:20;;;;;;;3.13;2.80;;;;;;;20.28;61.99;96999.50;5007178;28;20329;-77
2023/05/27 08:30:02;;;;;;;4.63;3.20;;;;;;;20.22;62.14;97005.28;5008443;28;20202;-71
2023/05/27 08:32:46;;;;;;;5.77;3.83;;;;;;;20.32;62.42;97014.06;5008252;28;20230;-73
2023/05/27 08:35:18;;;;;;;3.20;2.90;;;;;;;20.19;63.16;97024.81;5007587;28;20217;-75
2023/05/27 08:37:45;;;;;;;3.87;3.30;;;;;;;20.25;63.06;97026.09;5010144;28;20566;-74
2023/05/27 08:40:15;;;;;;;3.73;3.27;;;;;;;20.25;62.94;97018.19;5007050;28;20293;-70
2023/05/27 08:42:48;;;;;;;4.67;3.87;;;;;;;19.99;63.33;97016.91;5008472;28;20195;-79
2023/05/27 08:45:15;;;;;;;7.27;4.17;;;;;;;20.30;63.16;97009.91;5007487;28;20211;-79
2023/05/27 08:47:43;;;;;;;4.50;4.10;;;;;;;20.39;62.04;97014.38;5008485;28;20199;-76
2023/05/27 08:50:16;;;;;;;4.27;3.70;;;;;;;20.11;62.25;96993.00;5008270;28;20257;-76
2023/05/27 08:52:47;;;;;;;5.17;3.97;;;;;;;20.29;62.46;97009.06;5006930;28;20562;-70
2023/05/27 08:55:17;;;;;;;4.90;3.90;;;;;;;20.44;62.42;97018.31;4991940;28;20241;-69
2023/05/27 08:57:54;;;;;;;4.10;3.70;;;;;;;20.27;62.74;97016.25;5006920;28;20785;-74
2023/05/27 09:00:24;;;;;;;5.07;3.73;;;;;;;20.01;62.85;97028.13;5008220;28;20206;-70
2023/05/27 09:02:59;;;;;;;4.63;4.03;;;;;;;20.23;63.22;97028.84;4991325;28;20778;-69
2023/05/27 09:05:32;;;;;;;5.33;3.63;;;;;;;20.19;62.67;97008.16;5007067;28;20237;-69
2023/05/27 09:07:59;;;;;;;4.83;4.33;;;;;;;20.24;62.43;97032.28;5009487;28;20213;-69
2023/05/27 09:10:37;;;;;;;5.30;4.03;;;;;;;20.38;61.62;97025.88;5008135;28;20198;-70
2023/05/27 09:13:05;;;;;;;3.73;3.30;;;;;;;20.38;61.89;97020.63;5009343;28;20230;-70
2023/05/27 09:15:33;;;;;;;3.57;3.27;;;;;;;20.42;61.53;97006.22;5023135;28;20241;-70
2023/05/27 09:18:02;;;;;;;5.10;4.47;;;;;;;20.61;61.73;97022.94;4990835;28;20582;-70
2023/05/27 09:20:29;;;;;;;4.80;3.60;;;;;;;20.72;61.21;97022.84;5007700;28;20289;-72
2023/05/27 09:23:03;;;;;;;5.40;3.63;;;;;;;20.68;61.39;97024.09;5006275;28;20190;-70
2023/05/27 09:25:30;;;;;;;4.80;3.60;;;;;;;20.55;60.84;97018.19;5008902;28;20195;-69
2023/05/27 09:28:40;;;;;;;4.70;3.33;;;;;;;20.60;61.26;97023.91;5005734;28;20277;-74
2023/05/27 09:31:22;;;;;;;6.97;4.33;;;;;;;20.67;61.36;97014.50;5006383;28;20207;-70
2023/05/27 09:33:51;;;;;;;5.07;3.73;;;;;;;20.33;61.45;97015.75;5008794;28;20617;-74
2023/05/27 09:36:24;;;;;;;6.80;4.33;;;;;;;20.49;61.88;97008.19;5007356;28;20224;-71
2023/05/27 09:38:52;;;;;;;4.90;3.87;;;;;;;20.54;61.51;97016.53;5022671;28;20213;-76
2023/05/27 09:41:24;;;;;;;4.17;3.63;;;;;;;20.44;62.02;96999.88;5006674;28;20286;-71
2023/05/27 09:43:55;;;;;;;4.60;3.80;;;;;;;20.22;61.82;97002.66;5009788;28;20224;-73
2023/05/27 09:46:25;;;;;;;4.97;4.40;;;;;;;20.17;61.92;96994.31;5007079;28;20662;-70
2023/05/27 09:48:54;;;;;;;6.20;4.20;;;;;;;20.36;62.12;96978.63;5008220;28;20197;-77
2023/05/27 09:51:23;;;;;;;4.20;3.53;;;;;;;20.52;61.43;96989.53;4991562;28;20198;-81
2023/05/27 09:53:55;;;;;;;6.07;3.77;;;;;;;20.36;62.61;96985.72;5016930;28;20242;-70
2023/05/27 09:56:29;;;;;;;3.90;3.50;;;;;;;20.31;62.09;96990.53;5012771;28;20238;-68
2023/05/27 09:58:57;;;;;;;4.80;4.30;;;;;;;20.51;61.25;96985.22;5008244;28;20298;-71
2023/05/27 10:01:29;;;;;;;4.27;3.87;;;;;;;20.62;61.70;96981.66;5008536;28;20205;-70
2023/05/27 10:03:59;;;;;;;6.37;4.27;;;;;;;20.89;61.08;96982.72;5009060;28;20538;-71
2023/05/27 10:06:26;;;;;;;5.03;3.73;;;;;;;20.94;60.79;96987.56;5007390;28;20195;-70
2023/05/27 10:08:53;;;;;;;5.90;4.10;;;;;;;20.63;60.93;96973.63;5008421;28;20191;-71
2023/05/27 10:11:21;;;;;;;5.07;4.57;;;;;;;20.91;61.70;96969.44;5007241;28;20267;-79
2023/05/27 10:13:49;;;;;;;6.23;5.10;;;;;;;20.93;60.53;96986.75;5023009;28;20329;-74
2023/05/27 10:16:23;;;;;;;5.77;4.10;;;;;;;20.82;61.84;96968.44;5008289;28;20230;-80
2023/05/27 10:18:53;;;;;;;5.17;4.00;;;;;;;20.86;60.76;96983.00;5007535;28;20390;-75
2023/05/27 10:21:22;;;;;;;4.67;4.23;;;;;;;20.64;61.04;96975.31;5008212;28;20192;-76
2023/05/27 10:23:59;;;;;;;5.13;3.80;;;;;;;20.60;62.04;96968.66;5007427;28;20261;-71
2023/05/27 10:26:33;;;;;;;6.50;4.50;;;;;;;20.96;60.80;96975.94;5007480;28;20238;-75
2023/05/27 10:29:15;;;;;;;5.50;4.03;;;;;;;21.08;60.21;96976.72;5006032;28;20250;-68
2023/05/27 10:31:47;;;;;;;6.30;4.17;;;;;;;21.02;59.82;96982.50;5008015;28;20289;-69
2023/05/27 10:34:20;;;;;;;8.60;5.17;;;;;;;21.16;60.13;96981.28;5007766;28;20220;-71
2023/05/27 10:37:00;;;;;;;4.73;4.00;;;;;;;20.89;61.26;96979.25;5005635;28;20192;-68
2023/05/27 10:39:27;;;;;;;5.07;4.10;;;;;;;20.94;60.61;96977.88;5022269;28;20199;-69
2023/05/27 10:41:57;;;;;;;4.50;4.10;;;;;;;21.14;59.95;96968.25;5006744;28;20809;-69
2023/05/27 10:44:36;;;;;;;4.73;3.73;;;;;;;21.20;60.29;96972.13;5007778;28;20226;-68
2023/05/27 10:47:16;;;;;;;8.20;4.23;;;;;;;21.45;59.66;96985.59;5007570;28;20195;-70
2023/05/27 10:49:47;;;;;;;5.87;3.63;;;;;;;21.39;60.43;96985.34;5006955;28;20284;-69
2023/05/27 10:52:17;;;;;;;5.57;4.10;;;;;;;21.30;59.35;96970.34;5007880;28;20286;-67
2023/05/27 10:54:50;;;;;;;4.50;4.10;;;;;;;21.27;59.85;96966.19;5003920;28;20657;-67
2023/05/27 10:57:17;;;;;;;6.87;4.20;;;;;;;21.29;59.66;96966.88;5002730;28;20310;-68
2023/05/27 10:59:58;;;;;;;5.27;3.70;;;;;;;21.29;60.06;96971.34;5000866;28;20592;-71
2023/05/27 11:02:35;;;;;;;7.63;4.40;;;;;;;21.32;59.71;96956.06;4987514;28;20285;-75
2023/05/27 11:05:10;;;;;;;6.77;3.97;;;;;;;21.32;59.71;96968.41;4997183;28;20242;-78
2023/05/27 11:07:41;;;;;;;5.23;4.10;;;;;;;21.23;59.76;96940.25;4987156;28;20195;-71
2023/05/27 11:10:10;;;;;;;4.20;3.80;;;;;;;21.25;59.64;96975.19;4988549;28;20231;-81
2023/05/27 11:12:37;;;;;;;5.50;4.27;;;;;;;21.17;60.01;96941.63;5002341;28;20262;-80
2023/05/27 11:15:05;;;;;;;6.80;4.30;;;;;;;21.16;59.66;96926.81;4986584;28;20724;-79
2023/05/27 11:17:33;;;;;;;5.03;4.10;;;;;;;21.13;60.06;96939.41;4987740;28;20207;-70
2023/05/27 11:20:03;;;;;;;6.90;4.30;;;;;;;20.85;60.53;96952.38;4985905;28;20196;-68
2023/05/27 11:22:34;;;;;;;5.50;4.40;;;;;;;20.41;61.66;96944.88;4987642;28;20599;-73
2023/05/27 11:25:09;;;;;;;5.50;4.70;;;;;;;20.33;62.47;96943.88;4985425;28;20204;-70
2023/05/27 11:27:39;;;;;;;6.10;4.40;;;;;;;20.44;63.22;96947.25;4986550;28;20195;-70
2023/05/27 11:30:11;;;;;;;5.97;4.70;;;;;;;20.31;65.36;96927.41;4985345;28;20601;-69
2023/05/27 11:32:41;;;;;;;5.70;5.07;;;;;;;20.33;67.91;96928.09;5001600;28;20289;-71
2023/05/27 11:35:18;;;;;;;7.30;5.00;;;;;;;20.39;68.32;96922.31;4985870;28;20234;-68
2023/05/27 11:37:50;;;;;;;5.30;4.80;;;;;;;20.34;68.79;96909.53;5001136;28;20290;-69
2023/05/27 11:40:18;;;;;;;6.43;5.67;;;;;;;20.46;69.96;96919.03;5006842;28;20195;-72
2023/05/27 11:42:46;;;;;;;7.40;5.73;;;;;;;20.54;71.88;96908.66;5004414;28;20206;-69
2023/05/27 11:45:19;;;;;;;7.50;5.73;;;;;;;20.66;70.28;96910.22;5006977;28;20693;-75
2023/05/27 11:47:50;;;;;;;7.20;5.97;;;;;;;20.72;70.21;96882.50;5005129;28;20203;-75
2023/05/27 11:50:22;;;;;;;7.20;5.80;;;;;;;21.01;70.27;96905.28;5005793;28;20309;-75
2023/05/27 11:52:58;;;;;;;5.70;5.10;;;;;;;21.01;67.99;96904.44;5009739;28;20191;-77
2023/05/27 11:55:25;;;;;;;8.27;5.10;;;;;;;21.03;68.03;96887.56;5009465;28;20292;-72